Time;durP1;ratioP1;P1;durP2;ratioP2;P2;SDS_P1;SDS_P2;PMS_P1;PMS_P2;Temp;Humidity;BMP_temperature;BMP_pressure;BME280_temperature;BME280_humidity;BME280_pressure;Samples;Min_cycle;Max_cycle;Signal;HPM_P1;HPM_P2
2023/04/06 00:02:14;;;;;;;1999.90;999.90;;;2.50;99.90;;;;;;5070529;28;20427;-66
2023/04/06 00:04:41;;;;;;;1999.90;999.90;;;2.30;99.90;;;;;;5069622;28;20465;-66
2023/04/06 00:07:07;;;;;;;1999.90;999.90;;;2.30;99.90;;;;;;5071811;28;20442;-66
2023/04/06 00:09:34;;;;;;;1999.90;999.90;;;2.20;99.90;;;;;;5070337;28;20461;-65
2023/04/06 00:12:01;;;;;;;1999.90;999.90;;;2.20;99.90;;;;;;5070557;28;20427;-66
2023/04/06 00:14:27;;;;;;;1999.90;999.90;;;2.40;99.90;;;;;;5061174;28;20459;-64
2023/04/06 00:16:54;;;;;;;1999.90;999.90;;;2.40;99.90;;;;;;5058261;28;20439;-66
2023/04/06 00:19:22;;;;;;;1999.90;999.90;;;2.40;99.90;;;;;;5070962;28;20436;-65
2023/04/06 00:21:48;;;;;;;1999.90;999.90;;;2.50;99.90;;;;;;5063453;28;20923;-66
2023/04/06 00:24:15;;;;;;;1999.90;999.90;;;2.70;99.90;;;;;;5060750;28;20494;-65
2023/04/06 00:26:42;;;;;;;1999.90;999.90;;;2.60;99.90;;;;;;5070353;28;20802;-65
2023/04/06 00:29:08;;;;;;;1999.90;999.90;;;2.70;99.90;;;;;;5068200;28;20426;-66
2023/04/06 00:31:35;;;;;;;1999.90;999.90;;;2.80;99.90;;;;;;5069151;28;20466;-65
2023/04/06 00:34:01;;;;;;;1999.90;999.90;;;2.80;99.90;;;;;;5060917;28;20429;-65
2023/04/06 00:36:29;;;;;;;1999.90;999.90;;;3.30;99.90;;;;;;5070716;28;20551;-67
2023/04/06 00:38:56;;;;;;;1999.90;999.90;;;2.80;99.90;;;;;;5070400;28;20432;-66
2023/04/06 00:41:23;;;;;;;1999.90;999.90;;;2.70;99.90;;;;;;5068316;28;20432;-63
2023/04/06 00:43:49;;;;;;;1999.90;999.90;;;3.30;99.90;;;;;;5066537;28;20508;-66
2023/04/06 00:46:16;;;;;;;1999.90;999.90;;;2.80;99.90;;;;;;5064344;28;20802;-65
2023/04/06 00:48:42;;;;;;;1999.90;999.90;;;2.80;99.90;;;;;;5066276;28;20481;-65
2023/04/06 00:51:09;;;;;;;1999.90;999.90;;;2.90;99.90;;;;;;5068214;28;20476;-63
2023/04/06 00:53:37;;;;;;;1999.90;999.90;;;3.00;99.90;;;;;;5066702;28;20431;-65
2023/04/06 00:56:04;;;;;;;1999.90;999.90;;;3.20;99.90;;;;;;5070384;28;20484;-66
2023/04/06 00:58:30;;;;;;;1999.90;999.90;;;3.20;99.90;;;;;;5062112;28;20909;-65
2023/04/06 01:00:57;;;;;;;1999.90;999.90;;;3.20;99.90;;;;;;5067954;28;20489;-65
2023/04/06 01:03:24;;;;;;;1999.90;999.90;;;3.20;99.90;;;;;;5061957;28;20799;-65
2023/04/06 01:05:55;;;;;;;1999.90;999.90;;;3.10;99.90;;;;;;5068634;28;20432;-65
2023/04/06 01:08:22;;;;;;;1999.90;999.90;;;3.30;99.90;;;;;;5069955;28;20435;-66
2023/04/06 01:10:50;;;;;;;1999.90;999.90;;;3.30;99.90;;;;;;5061223;28;20469;-66
2023/04/06 01:13:16;;;;;;;1999.90;999.90;;;3.40;99.90;;;;;;5062613;28;20435;-64
2023/04/06 01:15:43;;;;;;;1999.90;999.90;;;3.30;99.90;;;;;;5067735;28;20438;-66
2023/04/06 01:18:11;;;;;;;1999.90;999.90;;;3.70;99.90;;;;;;5070099;28;20431;-65
2023/04/06 01:20:38;;;;;;;1999.90;999.90;;;3.40;99.90;;;;;;5066207;28;20825;-64
2023/04/06 01:23:06;;;;;;;1999.90;999.90;;;3.50;99.90;;;;;;5068835;28;20431;-65
2023/04/06 01:25:33;;;;;;;1999.90;999.90;;;3.30;99.90;;;;;;5069659;28;20435;-65
2023/04/06 01:27:59;;;;;;;1999.90;999.90;;;3.30;99.90;;;;;;5069035;28;20438;-63
2023/04/06 01:30:26;;;;;;;1999.90;999.90;;;3.30;99.90;;;;;;5068042;28;20485;-65
2023/04/06 01:32:52;;;;;;;1999.90;999.90;;;3.30;99.90;;;;;;5066540;28;20504;-65
2023/04/06 01:35:20;;;;;;;1999.90;999.90;;;3.30;99.90;;;;;;5061427;28;20491;-65
2023/04/06 01:37:47;;;;;;;1999.90;999.90;;;3.30;99.90;;;;;;5067397;28;20424;-64
2023/04/06 01:40:15;;;;;;;1999.90;999.90;;;3.30;99.90;;;;;;5069450;28;20431;-65
2023/04/06 01:42:42;;;;;;;1999.90;999.90;;;3.20;99.90;;;;;;5067987;28;20432;-66
2023/04/06 01:45:09;;;;;;;1999.90;999.90;;;3.20;99.90;;;;;;5067508;28;20427;-65
2023/04/06 01:47:36;;;;;;;1999.90;999.90;;;3.20;99.90;;;;;;5062048;28;20425;-65
2023/04/06 01:50:05;;;;;;;1999.90;999.90;;;3.30;99.90;;;;;;5068205;28;20992;-65
2023/04/06 01:52:32;;;;;;;1999.90;999.90;;;3.30;99.90;;;;;;5069306;28;20497;-65
2023/04/06 01:54:59;;;;;;;1999.90;999.90;;;3.20;99.90;;;;;;5068382;28;20439;-66
2023/04/06 01:57:27;;;;;;;1999.90;999.90;;;3.30;99.90;;;;;;5066952;28;20429;-65
2023/04/06 01:59:53;;;;;;;1999.90;999.90;;;3.20;99.90;;;;;;5065472;28;20810;-65
2023/04/06 02:02:20;;;;;;;1999.90;999.90;;;3.20;99.90;;;;;;5068129;28;20432;-65
2023/04/06 02:04:46;;;;;;;1999.90;999.90;;;3.30;99.90;;;;;;5063520;28;20437;-63
2023/04/06 02:07:13;;;;;;;1999.90;999.90;;;3.20;99.90;;;;;;5064584;28;20423;-66
2023/04/06 02:09:40;;;;;;;1999.90;999.90;;;3.10;99.90;;;;;;5060265;28;20419;-66
2023/04/06 02:12:06;;;;;;;1999.90;999.90;;;3.10;99.90;;;;;;5068899;28;20840;-66
2023/04/06 02:14:34;;;;;;;1999.90;999.90;;;3.00;99.90;;;;;;5068089;28;20432;-63
2023/04/06 02:17:01;;;;;;;1999.90;999.90;;;2.90;99.90;;;;;;5067988;28;20435;-65
2023/04/06 02:19:27;;;;;;;1999.90;999.90;;;2.80;99.90;;;;;;5068491;28;20975;-65
2023/04/06 02:21:54;;;;;;;1999.90;999.90;;;2.80;99.90;;;;;;5068565;28;20481;-66
2023/04/06 02:24:20;;;;;;;1999.90;999.90;;;2.90;99.90;;;;;;5067385;28;20484;-65
2023/04/06 02:26:47;;;;;;;1999.90;999.90;;;2.90;99.90;;;;;;5065727;28;20437;-65
2023/04/06 02:29:14;;;;;;;1999.90;999.90;;;2.80;99.90;;;;;;5059897;28;20931;-65
2023/04/06 02:31:41;;;;;;;1999.90;999.90;;;2.90;99.90;;;;;;5068620;28;20478;-66
2023/04/06 02:34:10;;;;;;;1999.90;999.90;;;3.00;99.90;;;;;;5062464;28;20428;-64
2023/04/06 02:36:37;;;;;;;1999.90;999.90;;;3.00;99.90;;;;;;5067356;28;20431;-65
2023/04/06 02:39:04;;;;;;;1999.90;999.90;;;2.90;99.90;;;;;;5064830;28;20836;-65
2023/04/06 02:41:30;;;;;;;1999.90;999.90;;;2.80;99.90;;;;;;5068287;28;20434;-65
2023/04/06 02:43:57;;;;;;;1999.90;999.90;;;2.60;99.90;;;;;;5051945;28;20483;-65
2023/04/06 02:46:23;;;;;;;1999.90;999.90;;;2.60;99.90;;;;;;5068289;28;20481;-66
2023/04/06 02:48:51;;;;;;;1999.90;999.90;;;3.00;99.90;;;;;;5066916;28;20506;-65
2023/04/06 02:51:18;;;;;;;1999.90;999.90;;;2.80;99.90;;;;;;5068982;28;20431;-65
2023/04/06 02:53:45;;;;;;;1999.90;999.90;;;2.60;99.90;;;;;;5071575;28;20944;-64
2023/04/06 02:56:11;;;;;;;1999.90;999.90;;;2.40;99.90;;;;;;5060062;28;20433;-65
2023/04/06 02:58:38;;;;;;;1999.90;999.90;;;2.20;99.90;;;;;;5068343;28;20420;-65
2023/04/06 03:01:05;;;;;;;1999.90;999.90;;;2.20;99.90;;;;;;5071711;28;20431;-66
2023/04/06 03:03:31;;;;;;;1999.90;999.90;;;2.20;99.90;;;;;;5067226;28;20427;-65
2023/04/06 03:06:00;;;;;;;1999.90;999.90;;;2.10;99.90;;;;;;5070987;28;20431;-65
2023/04/06 03:08:26;;;;;;;1999.90;999.90;;;2.20;99.90;;;;;;5072306;28;20431;-65
2023/04/06 03:10:53;;;;;;;1999.90;999.90;;;2.20;99.90;;;;;;5071415;28;20423;-63
2023/04/06 03:13:20;;;;;;;1999.90;999.90;;;2.30;99.90;;;;;;5068756;28;20431;-66
2023/04/06 03:15:46;;;;;;;1999.90;999.90;;;2.30;99.90;;;;;;5068417;28;20439;-65
2023/04/06 03:18:13;;;;;;;1999.90;999.90;;;2.10;99.90;;;;;;5072021;28;20906;-63
2023/04/06 03:20:40;;;;;;;1999.90;999.90;;;2.00;99.90;;;;;;5071324;28;20431;-65
2023/04/06 03:23:08;;;;;;;1999.90;999.90;;;2.00;99.90;;;;;;5069821;28;20443;-66
2023/04/06 03:25:34;;;;;;;1999.90;999.90;;;1.90;99.90;;;;;;5068571;28;20486;-66
2023/04/06 03:28:01;;;;;;;1999.90;999.90;;;1.70;99.90;;;;;;5071807;28;20474;-66
2023/04/06 03:30:28;;;;;;;1999.90;999.90;;;1.80;99.90;;;;;;5070167;28;20430;-66
2023/04/06 03:32:54;;;;;;;1999.90;999.90;;;1.70;99.90;;;;;;5071918;28;20987;-67
2023/04/06 03:35:21;;;;;;;1999.90;999.90;;;1.60;99.90;;;;;;5069822;28;20427;-65
2023/04/06 03:37:47;;;;;;;1999.90;999.90;;;1.60;99.90;;;;;;5063537;28;20433;-66
2023/04/06 03:40:15;;;;;;;1999.90;999.90;;;1.50;99.90;;;;;;5070221;28;20427;-64
2023/04/06 03:42:42;;;;;;;1999.90;999.90;;;1.60;99.90;;;;;;5070252;28;20533;-64
2023/04/06 03:45:10;;;;;;;1999.90;999.90;;;1.50;99.90;;;;;;5071205;28;20509;-65
2023/04/06 03:47:36;;;;;;;1999.90;999.90;;;1.50;99.90;;;;;;5070869;28;20492;-64
2023/04/06 03:50:03;;;;;;;1999.90;999.90;;;1.50;99.90;;;;;;5068810;28;20419;-64
2023/04/06 03:52:30;;;;;;;1999.90;999.90;;;1.50;99.90;;;;;;5068308;28;20983;-67
2023/04/06 03:54:56;;;;;;;1999.90;999.90;;;1.40;99.90;;;;;;5071591;28;20477;-67
2023/04/06 03:57:24;;;;;;;1999.90;999.90;;;1.40;99.90;;;;;;5071012;28;20431;-67
2023/04/06 03:59:51;;;;;;;1999.90;999.90;;;1.20;99.90;;;;;;5066668;28;20430;-66
2023/04/06 04:02:18;;;;;;;1999.90;999.90;;;1.20;99.90;;;;;;5064508;28;20431;-67
2023/04/06 04:04:44;;;;;;;1999.90;999.90;;;1.30;99.90;;;;;;5058796;28;20433;-66
2023/04/06 04:07:11;;;;;;;1999.90;999.90;;;1.20;99.90;;;;;;5070796;28;20435;-63
2023/04/06 04:09:37;;;;;;;1999.90;999.90;;;0.90;99.90;;;;;;5070259;28;20488;-67
2023/04/06 04:12:04;;;;;;;1999.90;999.90;;;0.90;99.90;;;;;;5069877;28;20913;-65
2023/04/06 04:14:32;;;;;;;1999.90;999.90;;;0.90;99.90;;;;;;5068660;28;20564;-66
2023/04/06 04:16:59;;;;;;;1999.90;999.90;;;1.00;99.90;;;;;;5069732;28;20427;-66
2023/04/06 04:19:26;;;;;;;1999.90;999.90;;;1.10;99.90;;;;;;5064195;28;20441;-66
2023/04/06 04:21:52;;;;;;;1999.90;999.90;;;1.00;99.90;;;;;;5071916;28;20428;-67
2023/04/06 04:24:19;;;;;;;1999.90;999.90;;;0.80;99.90;;;;;;5070263;28;20867;-64
2023/04/06 04:26:45;;;;;;;1999.90;999.90;;;0.80;99.90;;;;;;5069178;28;20488;-65
2023/04/06 04:29:12;;;;;;;1999.90;999.90;;;0.90;99.90;;;;;;5063719;28;20431;-63
2023/04/06 04:31:40;;;;;;;1999.90;999.90;;;0.70;99.90;;;;;;5070375;28;20427;-67
2023/04/06 04:34:07;;;;;;;1999.90;999.90;;;0.80;99.90;;;;;;5070578;28;20480;-66
2023/04/06 04:36:34;;;;;;;1999.90;999.90;;;0.80;99.90;;;;;;5060059;28;20427;-66
2023/04/06 04:39:01;;;;;;;1999.90;999.90;;;0.80;99.90;;;;;;5069968;28;20974;-67
2023/04/06 04:41:27;;;;;;;1999.90;999.90;;;0.80;99.90;;;;;;5070528;28;20435;-67
2023/04/06 04:43:54;;;;;;;1999.90;999.90;;;0.70;99.90;;;;;;5070051;28;20987;-65
2023/04/06 04:46:21;;;;;;;1999.90;999.90;;;0.60;99.90;;;;;;5069372;28;20457;-65
2023/04/06 04:48:49;;;;;;;1999.90;999.90;;;0.60;99.90;;;;;;5069705;28;20492;-66
2023/04/06 04:51:16;;;;;;;1999.90;999.90;;;0.70;99.90;;;;;;5066271;28;20802;-65
2023/04/06 04:53:42;;;;;;;1999.90;999.90;;;0.80;99.90;;;;;;5058853;28;20431;-64
2023/04/06 04:56:09;;;;;;;1999.90;999.90;;;0.80;99.90;;;;;;5060739;28;20429;-66
2023/04/06 04:58:36;;;;;;;1999.90;999.90;;;0.80;99.90;;;;;;5070053;28;20432;-66
2023/04/06 05:01:02;;;;;;;1999.90;999.90;;;0.80;99.90;;;;;;5064064;28;20440;-66
2023/04/06 05:03:29;;;;;;;1999.90;999.90;;;0.90;99.90;;;;;;5066352;28;20431;-66
2023/04/06 05:05:57;;;;;;;1999.90;999.90;;;0.80;99.90;;;;;;5069186;28;20812;-65
2023/04/06 05:08:24;;;;;;;1999.90;999.90;;;0.80;99.90;;;;;;5064872;28;20426;-66
2023/04/06 05:10:51;;;;;;;1999.90;999.90;;;1.00;99.90;;;;;;5060869;28;20793;-65
2023/04/06 05:13:17;;;;;;;1999.90;999.90;;;1.00;99.90;;;;;;5067293;28;20435;-65
2023/04/06 05:15:44;;;;;;;1999.90;999.90;;;1.10;99.90;;;;;;5064537;28;20502;-65
2023/04/06 05:18:11;;;;;;;1999.90;999.90;;;1.20;99.90;;;;;;5067160;28;20439;-63
2023/04/06 05:20:40;;;;;;;1999.90;999.90;;;1.10;99.90;;;;;;5069170;28;20917;-66
2023/04/06 05:23:08;;;;;;;1999.90;999.90;;;1.20;99.90;;;;;;5068974;28;20483;-64
2023/04/06 05:25:35;;;;;;;1999.90;999.90;;;1.30;99.90;;;;;;5060770;28;20433;-66
2023/04/06 05:28:01;;;;;;;1999.90;999.90;;;1.60;99.90;;;;;;5057723;28;20507;-66
2023/04/06 05:30:28;;;;;;;1999.90;999.90;;;1.80;99.90;;;;;;5065594;28;20759;-67
2023/04/06 05:32:55;;;;;;;1999.90;999.90;;;1.90;99.90;;;;;;5062616;28;20428;-66
2023/04/06 05:35:22;;;;;;;1999.90;999.90;;;2.00;99.90;;;;;;5068361;28;20499;-66
2023/04/06 05:37:48;;;;;;;1999.90;999.90;;;2.00;99.90;;;;;;5068422;28;20464;-66
2023/04/06 05:40:16;;;;;;;1999.90;999.90;;;2.20;99.90;;;;;;5067808;28;20477;-66
2023/04/06 05:42:43;;;;;;;1999.90;999.90;;;2.10;99.90;;;;;;5068256;28;20428;-66
2023/04/06 05:45:16;;;;;;;1999.90;999.90;;;2.00;99.90;;;;;;5066249;28;20431;-65
2023/04/06 05:47:43;;;;;;;1999.90;999.90;;;2.10;99.90;;;;;;5061443;28;20431;-62
2023/04/06 05:50:09;;;;;;;1999.90;999.90;;;2.20;99.90;;;;;;5065464;28;20848;-67
2023/04/06 05:52:36;;;;;;;1999.90;999.90;;;2.50;99.90;;;;;;5070674;28;20473;-67
2023/04/06 05:55:03;;;;;;;1999.90;999.90;;;2.70;99.90;;;;;;5070470;28;20463;-64
2023/04/06 05:57:31;;;;;;;1999.90;999.90;;;2.80;99.90;;;;;;5070583;28;20415;-67
2023/04/06 05:59:57;;;;;;;1999.90;999.90;;;2.40;99.90;;;;;;5069690;28;20427;-66
2023/04/06 06:02:24;;;;;;;1999.90;999.90;;;2.60;99.90;;;;;;5070070;28;20419;-65
2023/04/06 06:04:51;;;;;;;1999.90;999.90;;;2.80;99.90;;;;;;5070476;28;20832;-65
2023/04/06 06:07:18;;;;;;;1999.90;999.90;;;3.00;99.90;;;;;;5070409;28;20460;-65
2023/04/06 06:09:45;;;;;;;1999.90;999.90;;;2.90;99.90;;;;;;5070335;28;20411;-65
2023/04/06 06:12:11;;;;;;;1999.90;999.90;;;3.10;99.90;;;;;;5069931;28;20489;-64
2023/04/06 06:14:39;;;;;;;1999.90;999.90;;;3.30;99.90;;;;;;5070044;28;20418;-65
2023/04/06 06:17:06;;;;;;;1999.90;999.90;;;3.30;99.90;;;;;;5070141;28;20447;-66
2023/04/06 06:19:32;;;;;;;1999.90;999.90;;;3.50;99.90;;;;;;5070358;28;20415;-66
2023/04/06 06:22:01;;;;;;;1999.90;999.90;;;3.50;99.90;;;;;;5069882;28;20947;-65
2023/04/06 06:24:28;;;;;;;1999.90;999.90;;;3.50;99.90;;;;;;5069026;28;20426;-65
2023/04/06 06:26:54;;;;;;;1999.90;999.90;;;3.80;99.90;;;;;;5070016;28;20836;-66
2023/04/06 06:29:21;;;;;;;1999.90;999.90;;;4.00;99.90;;;;;;5070140;28;20913;-67
2023/04/06 06:31:49;;;;;;;1999.90;999.90;;;4.30;99.90;;;;;;5066279;28;20489;-65
2023/04/06 06:34:15;;;;;;;1999.90;999.90;;;4.60;99.90;;;;;;5057708;28;20951;-65
2023/04/06 06:36:42;;;;;;;1999.90;999.90;;;4.80;99.90;;;;;;5055283;28;20437;-64
2023/04/06 06:39:09;;;;;;;1999.90;999.90;;;4.90;99.90;;;;;;5063841;28;20427;-65
2023/04/06 06:41:36;;;;;;;1999.90;999.90;;;5.50;99.90;;;;;;5063787;28;20423;-66
2023/04/06 06:44:02;;;;;;;1999.90;999.90;;;5.10;99.90;;;;;;5065244;28;20494;-66
2023/04/06 06:46:29;;;;;;;1999.90;999.90;;;5.20;99.90;;;;;;5067001;28;20427;-66
2023/04/06 06:48:58;;;;;;;1999.90;999.90;;;5.40;99.90;;;;;;5069937;28;20427;-64
2023/04/06 06:51:24;;;;;;;1999.90;999.90;;;5.80;99.90;;;;;;5069469;28;20480;-64
2023/04/06 06:53:51;;;;;;;1999.90;999.90;;;5.80;99.90;;;;;;5065711;28;20763;-66
2023/04/06 06:56:17;;;;;;;1999.90;999.90;;;5.90;99.90;;;;;;5064372;28;20428;-66
2023/04/06 06:58:44;;;;;;;1999.90;999.90;;;6.30;99.90;;;;;;5060819;28;20436;-65
2023/04/06 07:01:11;;;;;;;1999.90;999.90;;;6.50;99.90;;;;;;5060590;28;20433;-65
2023/04/06 07:03:38;;;;;;;1999.90;999.90;;;6.80;99.90;;;;;;5063021;28;20488;-66
2023/04/06 07:06:06;;;;;;;1999.90;999.90;;;7.20;99.90;;;;;;5061388;28;20435;-65
2023/04/06 07:08:32;;;;;;;1999.90;999.90;;;6.70;99.90;;;;;;5065281;28;20455;-64
2023/04/06 07:10:59;;;;;;;1999.90;999.90;;;6.70;99.90;;;;;;5064571;28;20423;-64
2023/04/06 07:13:27;;;;;;;1999.90;999.90;;;6.80;99.90;;;;;;5060366;28;20422;-66
2023/04/06 07:15:53;;;;;;;1999.90;999.90;;;7.10;99.90;;;;;;5069172;28;20952;-65
2023/04/06 07:18:21;;;;;;;1999.90;999.90;;;7.30;99.90;;;;;;5054437;28;20896;-66
2023/04/06 07:20:47;;;;;;;1999.90;999.90;;;7.40;99.90;;;;;;5049514;28;20422;-66
2023/04/06 07:23:15;;;;;;;1999.90;999.90;;;7.50;99.90;;;;;;5063056;28;20427;-65
2023/04/06 07:25:42;;;;;;;1999.90;999.90;;;7.70;99.90;;;;;;5065681;28;21070;-64
2023/04/06 07:28:09;;;;;;;1999.90;999.90;;;7.90;99.90;;;;;;5060644;28;20471;-62
2023/04/06 07:30:35;;;;;;;1999.90;999.90;;;8.00;99.90;;;;;;5060390;28;20431;-64
2023/04/06 07:33:02;;;;;;;1999.90;999.90;;;8.10;98.90;;;;;;5056402;28;20429;-61
2023/04/06 07:35:29;;;;;;;1999.90;999.90;;;8.20;98.70;;;;;;5065179;28;20481;-63
2023/04/06 07:37:56;;;;;;;1999.90;999.90;;;8.20;99.10;;;;;;5066626;28;20423;-61
2023/04/06 07:40:25;;;;;;;1999.90;999.90;;;8.40;98.70;;;;;;5060683;28;20920;-64
2023/04/06 07:42:52;;;;;;;1999.90;999.90;;;8.60;97.40;;;;;;5061743;28;21019;-62
2023/04/06 07:45:19;;;;;;;1999.90;999.90;;;8.70;97.60;;;;;;5070056;28;20508;-63
2023/04/06 07:47:46;;;;;;;1999.90;999.90;;;8.80;98.30;;;;;;5070843;28;20435;-63
2023/04/06 07:50:13;;;;;;;1999.90;999.90;;;8.90;97.50;;;;;;5065752;28;20572;-63
2023/04/06 07:52:40;;;;;;;1999.90;999.90;;;9.00;97.30;;;;;;5066080;28;20446;-62
2023/04/06 07:55:07;;;;;;;1999.90;999.90;;;9.10;97.10;;;;;;5069005;28;20427;-63
2023/04/06 07:57:35;;;;;;;1999.90;999.90;;;9.20;97.70;;;;;;5072703;28;20547;-63
2023/04/06 08:00:03;;;;;;;1999.90;999.90;;;9.40;98.20;;;;;;5072457;28;20827;-64
2023/04/06 08:02:30;;;;;;;1999.90;999.90;;;9.50;98.00;;;;;;5069429;28;20794;-63
2023/04/06 08:04:56;;;;;;;1999.90;999.90;;;9.50;97.10;;;;;;5072623;28;20423;-64
2023/04/06 08:07:23;;;;;;;1999.90;999.90;;;9.80;97.80;;;;;;5072540;28;20416;-64
2023/04/06 08:09:49;;;;;;;1999.90;999.90;;;9.70;97.80;;;;;;5072486;28;20486;-64
2023/04/06 08:12:16;;;;;;;1999.90;999.90;;;9.80;97.30;;;;;;5072493;28;20470;-64
2023/04/06 08:14:44;;;;;;;1999.90;999.90;;;10.00;97.10;;;;;;5071655;28;20435;-63
2023/04/06 08:17:11;;;;;;;1999.90;999.90;;;10.40;96.60;;;;;;5067922;28;20489;-61
2023/04/06 08:19:38;;;;;;;1999.90;999.90;;;10.50;96.20;;;;;;5067765;28;20435;-65
2023/04/06 08:22:04;;;;;;;1999.90;999.90;;;10.40;95.70;;;;;;5061706;28;20432;-63
2023/04/06 08:24:32;;;;;;;1999.90;999.90;;;10.50;96.10;;;;;;5070310;28;20435;-64
2023/04/06 08:26:58;;;;;;;1999.90;999.90;;;10.70;96.00;;;;;;5066500;28;20431;-63
2023/04/06 08:29:25;;;;;;;1999.90;999.90;;;10.90;96.10;;;;;;5063521;28;20427;-64
2023/04/06 08:31:53;;;;;;;1999.90;999.90;;;11.00;96.10;;;;;;5065578;28;20493;-63
2023/04/06 08:34:19;;;;;;;1999.90;999.90;;;11.00;95.60;;;;;;5060978;28;20423;-61
2023/04/06 08:36:46;;;;;;;1999.90;999.90;;;10.60;95.30;;;;;;5067948;28;20426;-63
2023/04/06 08:39:13;;;;;;;1999.90;999.90;;;10.80;96.20;;;;;;5071202;28;20415;-63
2023/04/06 08:41:42;;;;;;;1999.90;999.90;;;10.90;95.50;;;;;;5071501;28;20415;-63
2023/04/06 08:44:09;;;;;;;1999.90;999.90;;;11.00;95.60;;;;;;5061328;28;20919;-61
2023/04/06 08:46:36;;;;;;;1999.90;999.90;;;11.00;95.90;;;;;;5062561;28;20470;-63
2023/04/06 08:49:06;;;;;;;1999.90;999.90;;;10.80;95.10;;;;;;5054375;28;20733;-63
2023/04/06 08:51:33;;;;;;;1999.90;999.90;;;10.70;94.50;;;;;;5050722;28;20951;-64
2023/04/06 08:54:00;;;;;;;1999.90;999.90;;;10.90;95.50;;;;;;5066457;28;20477;-65
2023/04/06 08:56:28;;;;;;;1999.90;999.90;;;11.30;94.90;;;;;;5057896;28;20427;-64
2023/04/06 08:58:55;;;;;;;1999.90;999.90;;;11.40;93.80;;;;;;5057088;28;20429;-64
2023/04/06 09:01:25;;;;;;;1999.90;999.90;;;11.60;91.20;;;;;;5062433;28;20456;-66
2023/04/06 09:03:53;;;;;;;1999.90;999.90;;;11.60;90.10;;;;;;5067045;28;20473;-64
2023/04/06 09:06:22;;;;;;;1999.90;999.90;;;11.70;90.50;;;;;;5060947;28;20433;-64
2023/04/06 09:08:48;;;;;;;1999.90;999.90;;;11.50;90.90;;;;;;5060213;28;20425;-64
2023/04/06 09:11:16;;;;;;;1999.90;999.90;;;11.60;91.40;;;;;;5063884;28;20903;-63
2023/04/06 09:13:47;;;;;;;1999.90;999.90;;;12.00;90.00;;;;;;5062632;28;20425;-63
2023/04/06 09:16:13;;;;;;;1999.90;999.90;;;12.40;84.80;;;;;;5071203;28;20430;-64
2023/04/06 09:18:40;;;;;;;1999.90;999.90;;;12.20;83.10;;;;;;5071152;28;20461;-66
2023/04/06 09:21:08;;;;;;;1999.90;999.90;;;12.50;81.50;;;;;;5063483;28;21041;-66
2023/04/06 09:23:37;;;;;;;1999.90;999.90;;;12.60;81.10;;;;;;5070508;28;20415;-67
2023/04/06 09:26:08;;;;;;;1999.90;999.90;;;13.10;78.50;;;;;;5071127;28;20411;-67
2023/04/06 09:28:47;;;;;;;1999.90;999.90;;;12.90;77.20;;;;;;5070336;28;20478;-67
2023/04/06 09:31:14;;;;;;;1999.90;999.90;;;12.80;76.90;;;;;;5070826;28;20424;-66
2023/04/06 09:33:42;;;;;;;1999.90;999.90;;;12.90;77.30;;;;;;5070193;28;20411;-65
2023/04/06 09:36:09;;;;;;;1999.90;999.90;;;13.00;76.80;;;;;;5069961;28;20419;-66
2023/04/06 09:38:39;;;;;;;1999.90;999.90;;;13.20;76.60;;;;;;5070694;28;20480;-67
2023/04/06 09:41:06;;;;;;;1999.90;999.90;;;13.20;74.00;;;;;;5066109;28;20415;-66
2023/04/06 09:43:32;;;;;;;1999.90;999.90;;;13.30;73.60;;;;;;5050708;28;20425;-67
2023/04/06 09:46:02;;;;;;;1999.90;999.90;;;13.30;74.30;;;;;;5051658;28;20475;-67
2023/04/06 09:48:32;;;;;;;1999.90;999.90;;;13.10;73.30;;;;;;5051122;28;20516;-67
2023/04/06 09:51:03;;;;;;;1999.90;999.90;;;13.20;75.10;;;;;;5057272;28;20485;-67
2023/04/06 09:53:32;;;;;;;1999.90;999.90;;;13.30;74.20;;;;;;5070192;28;20477;-67
2023/04/06 09:56:03;;;;;;;1999.90;999.90;;;13.40;73.90;;;;;;5070113;28;20412;-66
2023/04/06 09:58:35;;;;;;;1999.90;999.90;;;13.60;73.50;;;;;;5070277;28;20889;-67
2023/04/06 10:01:06;;;;;;;1999.90;999.90;;;13.60;71.70;;;;;;5070384;28;20972;-65
2023/04/06 10:03:41;;;;;;;1999.90;999.90;;;13.40;69.60;;;;;;5070442;28;20481;-67
2023/04/06 10:06:12;;;;;;;1999.90;999.90;;;13.10;72.20;;;;;;5070375;28;20480;-68
2023/04/06 10:08:41;;;;;;;1999.90;999.90;;;13.10;72.30;;;;;;5070358;28;20418;-63
2023/04/06 10:11:10;;;;;;;1999.90;999.90;;;12.80;70.40;;;;;;5070302;28;20419;-66
2023/04/06 10:13:37;;;;;;;1999.90;999.90;;;13.10;70.90;;;;;;5070275;28;20476;-67
2023/04/06 10:16:04;;;;;;;1999.90;999.90;;;13.30;70.00;;;;;;5070114;28;20431;-68
2023/04/06 10:18:31;;;;;;;1999.90;999.90;;;13.50;70.30;;;;;;5068644;28;20477;-68
2023/04/06 10:21:02;;;;;;;1999.90;999.90;;;13.40;71.40;;;;;;5070218;28;20554;-70
2023/04/06 10:23:35;;;;;;;1999.90;999.90;;;13.40;70.70;;;;;;5070667;28;20407;-71
2023/04/06 10:26:03;;;;;;;1999.90;999.90;;;13.20;69.90;;;;;;5069438;28;20411;-67
2023/04/06 10:28:35;;;;;;;1999.90;999.90;;;12.80;67.90;;;;;;5070001;28;20489;-68
2023/04/06 10:31:05;;;;;;;1999.90;999.90;;;12.80;72.00;;;;;;5070212;28;20457;-68
2023/04/06 10:33:32;;;;;;;1999.90;999.90;;;12.80;71.10;;;;;;5067536;28;20555;-68
2023/04/06 10:36:09;;;;;;;1999.90;999.90;;;12.60;70.60;;;;;;5069803;28;20442;-68
2023/04/06 10:38:37;;;;;;;1999.90;999.90;;;12.40;68.80;;;;;;5054526;28;20435;-68
2023/04/06 10:41:07;;;;;;;1999.90;999.90;;;12.50;72.00;;;;;;5069913;28;21095;-67
2023/04/06 10:43:37;;;;;;;1999.90;999.90;;;12.70;74.70;;;;;;5050219;28;20409;-69
2023/04/06 10:46:04;;;;;;;1999.90;999.90;;;12.70;70.00;;;;;;5050058;28;20417;-68
2023/04/06 10:48:39;;;;;;;1999.90;999.90;;;12.40;70.90;;;;;;5049889;28;20921;-68
2023/04/06 10:51:10;;;;;;;1999.90;999.90;;;12.60;70.30;;;;;;5055798;28;20801;-67
2023/04/06 10:53:37;;;;;;;1999.90;999.90;;;12.40;72.10;;;;;;5062316;28;20434;-68
2023/04/06 10:56:04;;;;;;;1999.90;999.90;;;12.40;72.70;;;;;;5069892;28;20420;-67
2023/04/06 10:58:31;;;;;;;1999.90;999.90;;;12.40;71.30;;;;;;5069885;28;20882;-67
2023/04/06 11:00:59;;;;;;;1999.90;999.90;;;12.60;71.80;;;;;;5070103;28;20465;-68
2023/04/06 11:03:27;;;;;;;1999.90;999.90;;;12.90;71.80;;;;;;5075200;28;20428;-70
2023/04/06 11:05:53;;;;;;;1999.90;999.90;;;13.20;70.80;;;;;;5068633;28;20431;-71
2023/04/06 11:08:24;;;;;;;1999.90;999.90;;;13.10;69.70;;;;;;5070578;28;20922;-68
2023/04/06 11:10:51;;;;;;;1999.90;999.90;;;12.90;72.90;;;;;;5073619;28;20419;-66
2023/04/06 11:13:18;;;;;;;1999.90;999.90;;;13.00;69.90;;;;;;5073844;28;20419;-70
2023/04/06 11:15:44;;;;;;;1999.90;999.90;;;13.10;69.70;;;;;;5064308;28;20816;-68
2023/04/06 11:18:13;;;;;;;1999.90;999.90;;;13.00;67.20;;;;;;5062963;28;20472;-68
2023/04/06 11:20:39;;;;;;;1999.90;999.90;;;12.80;68.30;;;;;;5062132;28;20431;-68
2023/04/06 11:23:08;;;;;;;1999.90;999.90;;;12.90;68.80;;;;;;5065307;28;21363;-70
2023/04/06 11:25:35;;;;;;;1999.90;999.90;;;13.20;69.20;;;;;;5067640;28;20431;-69
2023/04/06 11:28:02;;;;;;;1999.90;999.90;;;13.40;70.00;;;;;;5070900;28;20431;-70
2023/04/06 11:30:28;;;;;;;1999.90;999.90;;;13.50;66.70;;;;;;5062947;28;20440;-70
2023/04/06 11:33:02;;;;;;;1999.90;999.90;;;13.40;66.80;;;;;;5068936;28;20427;-67
2023/04/06 11:35:33;;;;;;;1999.90;999.90;;;13.50;70.40;;;;;;5071946;28;20450;-67
2023/04/06 11:38:03;;;;;;;1999.90;999.90;;;13.40;68.10;;;;;;5073300;28;20437;-68
2023/04/06 11:40:30;;;;;;;1999.90;999.90;;;13.30;69.20;;;;;;5072991;28;20959;-68
2023/04/06 11:42:56;;;;;;;1999.90;999.90;;;13.30;70.20;;;;;;5073136;28;20475;-70
2023/04/06 11:45:23;;;;;;;1999.90;999.90;;;13.20;68.80;;;;;;5073189;28;20411;-67
2023/04/06 11:47:59;;;;;;;1999.90;999.90;;;12.80;68.40;;;;;;5073271;28;20491;-67
2023/04/06 11:50:25;;;;;;;1999.90;999.90;;;12.70;68.10;;;;;;5071389;28;20429;-67
2023/04/06 11:53:01;;;;;;;1999.90;999.90;;;13.00;68.20;;;;;;5058346;28;20464;-69
2023/04/06 11:55:28;;;;;;;1999.90;999.90;;;13.30;67.50;;;;;;5063029;28;20451;-70
2023/04/06 11:57:55;;;;;;;1999.90;999.90;;;13.30;66.50;;;;;;5058729;28;20889;-70
2023/04/06 12:00:22;;;;;;;1999.90;999.90;;;13.40;66.60;;;;;;5067315;28;20629;-70
2023/04/06 12:02:50;;;;;;;1999.90;999.90;;;13.50;66.20;;;;;;5070817;28;20434;-71
2023/04/06 12:05:17;;;;;;;1999.90;999.90;;;13.60;66.70;;;;;;5063398;28;20430;-70
2023/04/06 12:07:43;;;;;;;1999.90;999.90;;;13.70;66.20;;;;;;5063186;28;20485;-70